Search for airport 
image banner adimage banner ad
image banner ad

DAAS - Setif / 8 Mai 45

Located in , Algeria

ICAO - DAAS, IATA - QSF

Data provided by Airmate  

General information

Coordinates: N36°10'43" E5°19'48"
Elevation is 3333 feet MSL.
 
Rated:
View ratings: [VIEW]


View others Airports in Sétif Province

Operational data

Open for public use
Current time UTC:
Current local time:
Weather
METAR: DAAS 130000Z 09004KT CAVOK 26/11 Q1021
TAF: TAF DAAS 122300Z 1300/1324 14008KT CAVOK BECMG 1306/1308 22012KT TEMPO 1312/1318 FEW023TCU PROB30 TEMPO 1315/1324 35015G25KT 5000 -TSRA FEW023CB BKN030
View NOTAMs / SUP AIP / TFR affecting this airport [VIEW]
Communications frequencies: [VIEW]

Runways:

RWY identifierQFULength (ft)Width (ft)SurfaceLDA (ft)
0987°9514148
27267°9514148

Airport contact information

Address: Algeria

Satellite view of DAAS